createdAt,value
2022-11-14T00:00:50.019Z,0.57
2022-11-14T00:03:20.392Z,1.05
2022-11-14T00:05:51.074Z,0.77
2022-11-14T00:08:29.344Z,0.88
2022-11-14T00:11:00.156Z,0.77
2022-11-14T00:13:30.755Z,0.82
2022-11-14T00:16:01.219Z,0.47
2022-11-14T00:18:32.310Z,1.25
2022-11-14T00:21:02.814Z,0.90
2022-11-14T00:23:33.626Z,1.10
2022-11-14T00:26:04.029Z,0.98
2022-11-14T00:28:34.474Z,1.02
2022-11-14T00:31:04.641Z,0.70
2022-11-14T00:33:34.971Z,0.80
2022-11-14T00:36:05.334Z,1.00
2022-11-14T00:38:44.793Z,1.02
2022-11-14T00:41:14.988Z,0.77
2022-11-14T00:43:45.214Z,0.93
2022-11-14T00:46:16.580Z,0.95
2022-11-14T00:48:47.366Z,0.93
2022-11-14T00:51:17.540Z,1.10
2022-11-14T00:53:47.754Z,0.88
2022-11-14T00:56:17.992Z,0.88
2022-11-14T00:58:48.295Z,0.98
2022-11-14T01:01:18.699Z,0.85
2022-11-14T01:03:55.397Z,1.00
2022-11-14T01:06:25.709Z,0.90
2022-11-14T01:08:56.022Z,0.90
2022-11-14T01:11:26.615Z,0.70
2022-11-14T01:13:56.887Z,0.73
2022-11-14T01:16:27.078Z,1.20
2022-11-14T01:18:57.354Z,0.90
2022-11-14T01:21:27.617Z,1.15
2022-11-14T01:23:57.843Z,0.80
2022-11-14T01:26:28.080Z,1.00
2022-11-14T01:28:58.356Z,0.90
2022-11-14T01:31:28.633Z,0.77
2022-11-14T01:33:58.805Z,0.80
2022-11-14T01:36:28.990Z,0.60
2022-11-14T01:38:59.265Z,0.82
2022-11-14T01:41:29.432Z,0.75
2022-11-14T01:43:59.591Z,0.57
2022-11-14T01:46:36.030Z,0.85
2022-11-14T01:49:21.246Z,1.05
2022-11-14T01:52:12.273Z,0.63
2022-11-14T01:54:47.098Z,0.93
2022-11-14T01:57:22.462Z,0.40
2022-11-14T01:59:56.580Z,1.15
2022-11-14T02:02:28.513Z,0.80
2022-11-14T02:05:12.831Z,0.90
2022-11-14T02:07:44.043Z,0.63
2022-11-14T02:10:20.495Z,0.60
2022-11-14T02:12:52.142Z,0.82
2022-11-14T02:15:22.409Z,1.00
2022-11-14T02:17:52.818Z,0.88
2022-11-14T02:20:33.368Z,0.52
2022-11-14T02:23:03.729Z,1.30
2022-11-14T02:25:33.939Z,0.82
2022-11-14T02:28:07.624Z,0.40
2022-11-14T02:30:38.045Z,0.45
2022-11-14T02:33:10.910Z,0.73
2022-11-14T02:35:42.265Z,0.70
2022-11-14T02:38:13.313Z,0.73
2022-11-14T02:40:43.537Z,0.50
2022-11-14T02:43:13.749Z,0.50
2022-11-14T02:45:44.103Z,0.40
2022-11-14T02:48:14.387Z,0.60
2022-11-14T02:50:44.701Z,0.50
2022-11-14T02:53:17.625Z,0.60
2022-11-14T02:55:47.845Z,0.40
2022-11-14T02:58:18.093Z,0.60
2022-11-14T03:01:13.732Z,0.30
2022-11-14T03:03:38.773Z,0.45
2022-11-14T03:06:09.419Z,0.70
2022-11-14T03:08:40.097Z,0.40
2022-11-14T03:11:11.960Z,0.57
2022-11-14T03:13:42.414Z,0.52
2022-11-14T03:16:16.048Z,0.70
2022-11-14T03:18:46.396Z,0.50
2022-11-14T03:21:19.249Z,0.50
2022-11-14T03:23:49.663Z,0.38
2022-11-14T03:26:20.623Z,0.68
2022-11-14T03:28:50.747Z,0.57
2022-11-14T03:31:20.905Z,0.60
2022-11-14T03:33:52.112Z,0.60
2022-11-14T03:36:22.410Z,0.40
2022-11-14T03:38:52.653Z,0.50
2022-11-14T03:41:22.874Z,0.80
2022-11-14T03:43:53.114Z,0.52
2022-11-14T03:46:23.476Z,0.35
2022-11-14T03:48:53.725Z,0.43
2022-11-14T03:51:24.089Z,0.40
2022-11-14T03:53:54.360Z,0.30
2022-11-14T03:56:25.286Z,0.30
2022-11-14T03:58:55.558Z,0.30
2022-11-14T04:01:25.964Z,0.63
2022-11-14T04:03:56.181Z,0.40
2022-11-14T04:06:26.490Z,0.40
2022-11-14T04:08:58.381Z,0.63
2022-11-14T04:11:28.605Z,0.30
2022-11-14T04:13:58.909Z,0.50
2022-11-14T04:16:29.820Z,0.50
2022-11-14T04:19:00.116Z,0.30
2022-11-14T04:21:30.582Z,0.55
2022-11-14T04:24:00.763Z,0.60
2022-11-14T04:26:31.037Z,0.50
2022-11-14T04:29:01.244Z,0.30
2022-11-14T04:31:31.502Z,0.57
2022-11-14T04:34:01.686Z,0.30
2022-11-14T04:36:31.884Z,0.52
2022-11-14T04:39:02.336Z,0.30
2022-11-14T04:41:32.594Z,0.57
2022-11-14T04:44:03.060Z,0.40
2022-11-14T04:46:33.262Z,0.30
2022-11-14T04:49:03.492Z,1.08
2022-11-14T04:51:33.739Z,0.50
2022-11-14T04:54:03.898Z,0.30
2022-11-14T04:56:34.741Z,0.32
2022-11-14T04:59:05.407Z,0.40
2022-11-14T05:01:35.698Z,0.30
2022-11-14T05:04:05.965Z,0.40
2022-11-14T05:06:36.323Z,0.40
2022-11-14T05:09:06.719Z,0.30
2022-11-14T05:11:37.008Z,0.50
2022-11-14T05:14:07.416Z,0.38
2022-11-14T05:16:37.844Z,0.30
2022-11-14T05:19:08.109Z,0.35
2022-11-14T05:21:38.301Z,0.40
2022-11-14T05:24:08.715Z,0.35
2022-11-14T05:26:39.187Z,0.50
2022-11-14T05:29:09.615Z,0.38
2022-11-14T05:31:39.814Z,0.40
2022-11-14T05:34:09.966Z,0.50
2022-11-14T05:36:40.429Z,0.30
2022-11-14T05:39:10.701Z,0.20
2022-11-14T05:41:40.920Z,0.60
2022-11-14T05:44:11.616Z,0.20
2022-11-14T05:46:41.839Z,0.40
2022-11-14T05:49:12.102Z,0.43
2022-11-14T05:51:42.537Z,0.20
2022-11-14T05:54:12.764Z,0.30
2022-11-14T05:56:43.115Z,0.30
2022-11-14T05:59:13.239Z,0.40
2022-11-14T06:01:43.592Z,0.40
2022-11-14T06:04:16.765Z,0.60
2022-11-14T06:06:47.073Z,0.77
2022-11-14T06:09:17.392Z,0.50
2022-11-14T06:11:47.737Z,0.50
2022-11-14T06:14:17.998Z,0.30
2022-11-14T06:16:48.407Z,0.30
2022-11-14T06:19:18.681Z,0.35
2022-11-14T06:21:48.909Z,0.50
2022-11-14T06:24:19.262Z,0.32
2022-11-14T06:26:49.526Z,0.35
2022-11-14T06:29:19.804Z,0.40
2022-11-14T06:31:50.082Z,0.32
2022-11-14T06:34:20.355Z,0.40
2022-11-14T06:36:50.605Z,0.40
2022-11-14T06:39:20.771Z,0.20
2022-11-14T06:41:51.022Z,0.32
2022-11-14T06:44:23.101Z,0.50
2022-11-14T06:46:55.673Z,0.30
2022-11-14T06:49:29.465Z,0.30
2022-11-14T06:51:59.759Z,0.22
2022-11-14T06:54:30.005Z,0.32
2022-11-14T06:57:00.256Z,0.40
2022-11-14T06:59:30.427Z,0.40
2022-11-14T07:02:00.916Z,0.30
2022-11-14T07:04:31.093Z,0.22
2022-11-14T07:07:01.335Z,0.40
2022-11-14T07:09:31.555Z,0.30
2022-11-14T07:12:01.753Z,0.45
2022-11-14T07:14:32.033Z,0.13
2022-11-14T07:17:02.493Z,0.30
2022-11-14T07:19:32.660Z,0.30
2022-11-14T07:22:02.891Z,0.20
2022-11-14T07:24:33.062Z,0.30
2022-11-14T07:27:03.852Z,0.30
2022-11-14T07:29:34.006Z,0.25
2022-11-14T07:32:04.166Z,0.30
2022-11-14T07:34:34.394Z,0.20
2022-11-14T07:37:04.682Z,0.40
2022-11-14T07:39:34.897Z,0.20
2022-11-14T07:42:05.079Z,0.20
2022-11-14T07:44:36.027Z,0.28
2022-11-14T07:47:06.363Z,0.40
2022-11-14T07:49:36.636Z,0.22
2022-11-14T07:52:06.947Z,0.17
2022-11-14T07:54:37.147Z,0.30
2022-11-14T07:57:07.367Z,0.22
2022-11-14T07:59:37.805Z,0.30
2022-11-14T08:02:08.369Z,0.30
2022-11-14T08:04:38.804Z,0.20
2022-11-14T08:07:09.122Z,0.20
2022-11-14T08:09:39.440Z,0.30
2022-11-14T08:12:09.871Z,0.30
2022-11-14T08:14:40.003Z,0.20
2022-11-14T08:17:10.148Z,0.45
2022-11-14T08:19:40.433Z,0.20
2022-11-14T08:22:10.947Z,0.30
2022-11-14T08:24:41.184Z,0.38
2022-11-14T08:27:11.388Z,0.20
2022-11-14T08:29:41.595Z,0.20
2022-11-14T08:32:12.307Z,0.85
2022-11-14T08:34:42.554Z,0.60
2022-11-14T08:37:13.026Z,0.30
2022-11-14T08:39:43.195Z,0.10
2022-11-14T08:42:13.599Z,0.28
2022-11-14T08:44:49.326Z,0.60
2022-11-14T08:47:22.215Z,0.35
2022-11-14T08:49:52.446Z,0.32
2022-11-14T08:52:23.401Z,0.47
2022-11-14T08:54:53.771Z,0.43
2022-11-14T08:57:24.000Z,0.52
2022-11-14T08:59:54.230Z,0.22
2022-11-14T09:02:24.387Z,0.40
2022-11-14T09:04:54.631Z,0.20
2022-11-14T09:07:24.940Z,0.30
2022-11-14T09:09:55.233Z,0.32
2022-11-14T09:12:25.456Z,0.20
2022-11-14T09:14:55.665Z,0.20
2022-11-14T09:17:25.917Z,0.20
2022-11-14T09:19:56.295Z,0.38
2022-11-14T09:22:26.644Z,0.30
2022-11-14T09:24:56.879Z,0.20
2022-11-14T09:27:29.585Z,0.30
2022-11-14T09:30:00.160Z,0.20
2022-11-14T09:32:30.594Z,0.20
2022-11-14T09:35:00.834Z,0.30
2022-11-14T09:37:31.042Z,0.30
2022-11-14T09:40:01.314Z,0.30
2022-11-14T09:42:58.218Z,0.30
2022-11-14T09:45:30.547Z,0.20
2022-11-14T09:48:11.234Z,0.28
2022-11-14T09:50:50.518Z,0.38
2022-11-14T09:53:36.416Z,0.30
2022-11-14T09:56:06.787Z,0.22
2022-11-14T09:58:37.126Z,0.22
2022-11-14T10:01:44.005Z,0.30
2022-11-14T10:04:32.038Z,0.20
2022-11-14T10:07:33.010Z,0.20
2022-11-14T10:10:16.282Z,0.20
2022-11-14T10:12:56.426Z,0.20
2022-11-14T10:16:15.446Z,0.20
2022-11-14T10:18:45.835Z,0.30
2022-11-14T10:21:31.883Z,0.30
2022-11-14T10:24:25.995Z,0.20
2022-11-14T10:27:03.752Z,0.20
2022-11-14T10:29:48.351Z,0.30
2022-11-14T10:32:25.738Z,0.30
2022-11-14T10:35:22.149Z,0.45
2022-11-14T10:38:09.010Z,0.40
2022-11-14T10:40:45.136Z,0.20
2022-11-14T10:43:34.808Z,0.45
2022-11-14T10:46:25.557Z,0.30
2022-11-14T10:49:00.239Z,0.40
2022-11-14T10:51:36.986Z,0.30
2022-11-14T10:54:17.087Z,0.63
2022-11-14T10:56:56.252Z,0.40
2022-11-14T10:59:26.776Z,0.20
2022-11-14T11:02:00.396Z,0.20
2022-11-14T11:04:39.215Z,0.20
2022-11-14T11:07:31.957Z,0.40
2022-11-14T11:10:24.394Z,0.22
2022-11-14T11:12:56.396Z,0.25
2022-11-14T11:15:28.661Z,0.20
2022-11-14T11:18:01.377Z,0.30
2022-11-14T11:20:37.809Z,0.25
2022-11-14T11:23:29.466Z,0.20
2022-11-14T11:26:09.576Z,0.28
2022-11-14T11:28:40.268Z,0.30
2022-11-14T11:31:13.169Z,0.38
2022-11-14T11:33:45.030Z,0.30
2022-11-14T11:36:35.739Z,0.40
2022-11-14T11:39:06.084Z,0.47
2022-11-14T11:42:07.690Z,0.20
2022-11-14T11:44:38.923Z,0.35
2022-11-14T11:47:15.691Z,0.30
2022-11-14T11:49:54.892Z,0.30
2022-11-14T11:52:36.628Z,0.30
2022-11-14T11:55:48.040Z,0.20
2022-11-14T11:58:26.944Z,0.40
2022-11-14T12:00:57.976Z,0.30
2022-11-14T12:03:29.009Z,0.43
2022-11-14T12:06:27.098Z,0.20
2022-11-14T12:09:05.054Z,0.28
2022-11-14T12:11:38.715Z,0.30
2022-11-14T12:14:18.223Z,0.40
2022-11-14T12:17:00.449Z,0.30
2022-11-14T12:19:48.627Z,0.30
2022-11-14T12:22:45.743Z,0.30
2022-11-14T12:25:24.588Z,0.30
2022-11-14T12:28:26.548Z,0.47
2022-11-14T12:31:03.483Z,0.22
2022-11-14T12:33:40.377Z,0.25
2022-11-14T12:36:15.418Z,0.30
2022-11-14T12:38:55.350Z,0.40
2022-11-14T12:41:31.446Z,0.30
2022-11-14T12:44:34.042Z,0.20
2022-11-14T12:47:10.143Z,0.20
2022-11-14T12:49:55.311Z,0.38
2022-11-14T12:52:46.346Z,0.30
2022-11-14T12:55:28.894Z,0.20
2022-11-14T12:58:10.043Z,0.30
2022-11-14T13:01:08.842Z,0.25
2022-11-14T13:03:42.052Z,0.50
2022-11-14T13:06:34.452Z,0.30
2022-11-14T13:09:13.746Z,0.35
2022-11-14T13:12:04.982Z,0.20
2022-11-14T13:15:08.283Z,0.20
2022-11-14T13:17:57.012Z,0.30
2022-11-14T13:20:55.918Z,0.20
2022-11-14T13:23:29.749Z,0.30
2022-11-14T13:26:29.079Z,0.30
2022-11-14T13:28:59.876Z,0.28
2022-11-14T13:31:39.102Z,0.22
2022-11-14T13:34:27.382Z,0.22
2022-11-14T13:37:17.398Z,0.25
2022-11-14T13:40:24.428Z,0.20
2022-11-14T13:43:12.761Z,0.43
2022-11-14T13:46:01.180Z,0.30
2022-11-14T13:49:03.332Z,0.20
2022-11-14T13:51:43.370Z,0.30
2022-11-14T13:54:18.946Z,0.20
2022-11-14T13:57:30.253Z,0.30
2022-11-14T14:00:20.323Z,0.20
2022-11-14T14:03:06.290Z,0.30
2022-11-14T14:05:42.577Z,0.30
2022-11-14T14:08:13.377Z,0.20
2022-11-14T14:10:52.565Z,0.30
2022-11-14T14:13:42.134Z,0.30
2022-11-14T14:16:38.732Z,0.30
2022-11-14T14:19:26.224Z,0.25
2022-11-14T14:22:34.756Z,0.20
2022-11-14T14:25:16.440Z,0.43
2022-11-14T14:27:52.551Z,0.30
2022-11-14T14:30:23.299Z,0.30
2022-11-14T14:33:09.623Z,0.35
2022-11-14T14:35:41.547Z,0.28
2022-11-14T14:38:23.802Z,0.22
2022-11-14T14:40:55.979Z,0.30
2022-11-14T14:43:37.396Z,0.30
2022-11-14T14:46:07.905Z,0.20
2022-11-14T14:48:42.843Z,0.30
2022-11-14T14:51:17.219Z,0.25
2022-11-14T14:53:55.641Z,0.30
2022-11-14T14:56:27.500Z,0.20
2022-11-14T14:58:58.225Z,0.32
2022-11-14T15:01:37.430Z,0.13
2022-11-14T15:04:10.467Z,0.30
2022-11-14T15:06:42.301Z,0.22
2022-11-14T15:09:21.582Z,0.30
2022-11-14T15:12:01.186Z,0.35
2022-11-14T15:14:34.360Z,0.20
2022-11-14T15:17:05.921Z,0.20
2022-11-14T15:19:46.028Z,0.25
2022-11-14T15:22:22.077Z,0.22
2022-11-14T15:25:13.208Z,0.30
2022-11-14T15:27:56.539Z,0.20
2022-11-14T15:30:36.578Z,0.28
2022-11-14T15:33:09.026Z,0.20
2022-11-14T15:35:41.624Z,0.20
2022-11-14T15:38:42.453Z,0.15
2022-11-14T15:41:24.771Z,0.30
2022-11-14T15:43:56.967Z,0.20
2022-11-14T15:46:50.179Z,0.30
2022-11-14T15:49:25.162Z,0.30
2022-11-14T15:52:03.849Z,0.20
2022-11-14T15:54:36.440Z,0.30
2022-11-14T15:57:18.970Z,0.20
2022-11-14T15:59:49.355Z,0.20
2022-11-14T16:02:31.331Z,0.20
2022-11-14T16:05:02.629Z,0.10
2022-11-14T16:07:32.940Z,0.20
2022-11-14T16:10:03.189Z,0.20
2022-11-14T16:12:33.350Z,0.20
2022-11-14T16:15:03.525Z,0.20
2022-11-14T16:17:42.046Z,0.35
2022-11-14T16:20:36.068Z,0.20
2022-11-14T16:23:07.243Z,0.20
2022-11-14T16:25:37.641Z,0.25
2022-11-14T16:28:07.935Z,0.28
2022-11-14T16:30:38.125Z,0.25
2022-11-14T16:33:08.460Z,0.20
2022-11-14T16:35:38.991Z,0.20
2022-11-14T16:38:09.210Z,0.30
2022-11-14T16:40:39.457Z,0.20
2022-11-14T16:43:14.175Z,0.20
2022-11-14T16:45:44.731Z,0.30
2022-11-14T16:48:15.636Z,0.20
2022-11-14T16:50:46.172Z,0.20
2022-11-14T16:53:16.538Z,0.20
2022-11-14T16:55:47.530Z,0.30
2022-11-14T16:58:17.700Z,0.20
2022-11-14T17:00:48.218Z,0.20
2022-11-14T17:03:19.824Z,0.28
2022-11-14T17:05:52.650Z,0.20
2022-11-14T17:08:22.914Z,0.20
2022-11-14T17:10:53.168Z,0.32
2022-11-14T17:13:26.964Z,0.20
2022-11-14T17:16:02.521Z,0.20
2022-11-14T17:18:37.240Z,0.20
2022-11-14T17:21:10.801Z,0.15
2022-11-14T17:23:41.060Z,0.10
2022-11-14T17:26:13.979Z,0.22
2022-11-14T17:28:45.173Z,0.20
2022-11-14T17:31:15.742Z,0.15
2022-11-14T17:33:46.308Z,0.20
2022-11-14T17:36:16.553Z,0.20
2022-11-14T17:38:46.815Z,0.20
2022-11-14T17:41:17.201Z,0.30
2022-11-14T17:43:48.006Z,0.20
2022-11-14T17:46:18.446Z,0.30
2022-11-14T17:48:49.292Z,0.20
2022-11-14T17:51:21.208Z,0.20
2022-11-14T17:53:51.440Z,0.20
2022-11-14T17:56:24.191Z,0.30
2022-11-14T17:58:55.972Z,0.17
2022-11-14T18:01:28.017Z,0.13
2022-11-14T18:04:03.205Z,0.20
2022-11-14T18:06:40.179Z,0.20
2022-11-14T18:09:14.038Z,0.20
2022-11-14T18:11:47.504Z,0.17
2022-11-14T18:14:17.918Z,0.20
2022-11-14T18:17:11.864Z,0.15
2022-11-14T18:19:38.836Z,0.20
2022-11-14T18:22:09.557Z,0.20
2022-11-14T18:24:43.137Z,0.20
2022-11-14T18:27:13.600Z,0.20
2022-11-14T18:29:43.800Z,0.20
2022-11-14T18:32:13.975Z,0.20
2022-11-14T18:34:44.325Z,0.20
2022-11-14T18:37:14.595Z,0.10
2022-11-14T18:39:44.825Z,0.20
2022-11-14T18:42:15.138Z,0.20
2022-11-14T18:44:45.779Z,0.20
2022-11-14T18:47:16.177Z,0.17
2022-11-14T18:49:46.776Z,0.20
2022-11-14T18:52:17.730Z,0.25
2022-11-14T18:54:48.350Z,0.30
2022-11-14T18:57:19.100Z,0.20
2022-11-14T18:59:49.298Z,0.20
2022-11-14T19:02:19.556Z,0.10
2022-11-14T19:04:49.826Z,0.20
2022-11-14T19:07:20.262Z,0.22
2022-11-14T19:09:50.963Z,0.20
2022-11-14T19:12:24.000Z,0.17
2022-11-14T19:14:55.496Z,0.10
2022-11-14T19:17:26.011Z,0.20
2022-11-14T19:19:56.860Z,0.20
2022-11-14T19:22:27.143Z,0.20
2022-11-14T19:24:58.422Z,0.10
2022-11-14T19:27:28.600Z,0.20
2022-11-14T19:29:58.854Z,0.17
2022-11-14T19:32:29.305Z,0.30
2022-11-14T19:34:59.564Z,0.10
2022-11-14T19:37:31.224Z,0.30
2022-11-14T19:40:01.821Z,0.20
2022-11-14T19:42:32.183Z,0.20
2022-11-14T19:45:02.442Z,0.32
2022-11-14T19:47:32.648Z,0.20
2022-11-14T19:50:02.919Z,0.43
2022-11-14T19:52:33.144Z,0.30
2022-11-14T19:55:03.309Z,0.20
2022-11-14T19:57:34.019Z,0.20
2022-11-14T20:00:04.320Z,0.20
2022-11-14T20:02:34.700Z,0.30
2022-11-14T20:05:04.948Z,0.20
2022-11-14T20:07:37.011Z,0.20
2022-11-14T20:10:08.496Z,0.30
2022-11-14T20:12:38.796Z,0.20
2022-11-14T20:15:09.602Z,0.40
2022-11-14T20:17:39.876Z,0.22
2022-11-14T20:20:10.648Z,0.30
2022-11-14T20:22:40.995Z,0.30
2022-11-14T20:25:11.494Z,0.28
2022-11-14T20:27:41.799Z,0.20
2022-11-14T20:30:12.243Z,0.20
2022-11-14T20:32:42.614Z,0.20
2022-11-14T20:35:12.819Z,0.20
2022-11-14T20:37:43.266Z,0.10
2022-11-14T20:40:14.239Z,0.20
2022-11-14T20:42:44.481Z,0.10
2022-11-14T20:45:14.682Z,0.20
2022-11-14T20:47:45.006Z,0.22
2022-11-14T20:50:15.292Z,0.25
2022-11-14T20:52:47.515Z,0.30
2022-11-14T20:55:18.406Z,0.20
2022-11-14T20:57:48.759Z,0.30
2022-11-14T21:00:19.434Z,0.20
2022-11-14T21:02:49.683Z,0.20
2022-11-14T21:05:19.990Z,0.22
2022-11-14T21:07:50.207Z,0.30
2022-11-14T21:10:38.357Z,0.30
2022-11-14T21:13:29.801Z,0.17
2022-11-14T21:16:01.281Z,0.20
2022-11-14T21:18:32.436Z,0.20
2022-11-14T21:21:06.076Z,0.20
2022-11-14T21:23:36.968Z,0.38
2022-11-14T21:26:16.351Z,0.20
2022-11-14T21:28:48.814Z,0.15
2022-11-14T21:31:23.575Z,0.20
2022-11-14T21:34:00.340Z,0.25
2022-11-14T21:36:47.516Z,0.20
2022-11-14T21:39:18.670Z,0.13
2022-11-14T21:41:50.842Z,0.20
2022-11-14T21:44:23.313Z,0.10
2022-11-14T21:46:55.366Z,0.30
2022-11-14T21:49:25.682Z,0.10
2022-11-14T21:51:55.968Z,0.20
2022-11-14T21:54:26.187Z,0.30
2022-11-14T21:56:56.360Z,0.20
2022-11-14T21:59:29.226Z,0.20
2022-11-14T22:02:17.814Z,0.20
2022-11-14T22:04:48.976Z,0.20
2022-11-14T22:07:19.328Z,0.30
2022-11-14T22:09:49.682Z,0.30
2022-11-14T22:12:19.972Z,0.17
2022-11-14T22:14:50.199Z,0.20
2022-11-14T22:17:20.413Z,0.55
2022-11-14T22:19:50.628Z,0.20
2022-11-14T22:22:20.824Z,0.32
2022-11-14T22:24:51.095Z,0.20
2022-11-14T22:27:21.276Z,0.13
2022-11-14T22:29:51.538Z,0.20
2022-11-14T22:32:21.741Z,0.20
2022-11-14T22:34:51.954Z,0.20
2022-11-14T22:37:22.175Z,0.22
2022-11-14T22:39:52.486Z,0.20
2022-11-14T22:42:22.692Z,0.30
2022-11-14T22:44:52.944Z,0.20
2022-11-14T22:47:24.134Z,0.55
2022-11-14T22:49:54.742Z,0.15
2022-11-14T22:52:24.934Z,0.30
2022-11-14T22:54:55.198Z,0.20
2022-11-14T22:57:25.442Z,0.25
2022-11-14T22:59:55.634Z,0.30
2022-11-14T23:02:25.882Z,0.20
2022-11-14T23:04:56.108Z,0.40
2022-11-14T23:07:28.422Z,0.40
2022-11-14T23:09:58.717Z,0.45
2022-11-14T23:12:28.948Z,0.22
2022-11-14T23:14:59.862Z,0.35
2022-11-14T23:17:30.192Z,0.30
2022-11-14T23:20:01.293Z,0.30
2022-11-14T23:22:32.286Z,0.40
2022-11-14T23:25:02.758Z,0.20
2022-11-14T23:27:34.318Z,0.30
2022-11-14T23:30:04.482Z,0.30
2022-11-14T23:32:34.684Z,0.30
2022-11-14T23:35:05.276Z,0.30
2022-11-14T23:37:36.053Z,0.40
2022-11-14T23:40:06.494Z,0.20
2022-11-14T23:42:36.729Z,0.20
2022-11-14T23:45:07.218Z,0.30
2022-11-14T23:47:37.514Z,0.20
2022-11-14T23:50:08.217Z,0.40
2022-11-14T23:52:38.431Z,0.25
2022-11-14T23:55:08.933Z,0.20
2022-11-14T23:57:39.227Z,0.40
